createdAt,value
2024-03-13T00:01:57.336Z,4.67
2024-03-13T00:04:42.953Z,4.57
2024-03-13T00:07:28.425Z,4.50
2024-03-13T00:10:13.859Z,4.39
2024-03-13T00:12:59.261Z,4.38
2024-03-13T00:15:44.288Z,4.42
2024-03-13T00:18:29.705Z,4.41
2024-03-13T00:21:14.694Z,4.46
2024-03-13T00:24:00.068Z,4.63
2024-03-13T00:26:45.021Z,4.47
2024-03-13T00:29:29.901Z,4.46
2024-03-13T00:32:15.978Z,4.43
2024-03-13T00:35:01.086Z,4.58
2024-03-13T00:37:45.976Z,4.59
2024-03-13T00:40:30.965Z,4.61
2024-03-13T00:43:15.991Z,4.51
2024-03-13T00:46:01.177Z,4.57
2024-03-13T00:48:46.395Z,4.47
2024-03-13T00:51:31.436Z,4.40
2024-03-13T00:54:17.321Z,4.26
2024-03-13T00:57:02.432Z,4.31
2024-03-13T00:59:47.428Z,4.24
2024-03-13T01:02:32.582Z,4.36
2024-03-13T01:05:17.477Z,4.27
2024-03-13T01:08:02.314Z,4.23
2024-03-13T01:10:47.174Z,4.17
2024-03-13T01:13:32.248Z,4.17
2024-03-13T01:16:17.527Z,4.22
2024-03-13T01:19:02.590Z,4.22
2024-03-13T01:21:48.509Z,4.27
2024-03-13T01:24:33.404Z,4.47
2024-03-13T01:27:18.491Z,4.41
2024-03-13T01:30:04.651Z,4.35
2024-03-13T01:32:49.887Z,4.29
2024-03-13T01:35:34.880Z,4.34
2024-03-13T01:38:19.853Z,4.23
2024-03-13T01:41:04.651Z,4.32
2024-03-13T01:43:57.055Z,4.36
2024-03-13T01:46:42.480Z,4.24
2024-03-13T01:49:28.062Z,4.28
2024-03-13T01:52:17.184Z,4.27
2024-03-13T01:55:08.923Z,4.23
2024-03-13T01:57:54.217Z,4.23
2024-03-13T02:00:39.416Z,4.32
2024-03-13T02:03:24.667Z,4.26
2024-03-13T02:06:09.645Z,4.14
2024-03-13T02:08:54.865Z,4.19
2024-03-13T02:11:40.015Z,4.23
2024-03-13T02:14:25.453Z,4.18
2024-03-13T02:17:10.840Z,4.08
2024-03-13T02:19:57.078Z,4.08
2024-03-13T02:22:42.447Z,4.15
2024-03-13T02:25:27.497Z,4.28
2024-03-13T02:28:12.418Z,4.29
2024-03-13T02:30:57.368Z,4.23
2024-03-13T02:33:42.139Z,4.24
2024-03-13T02:36:27.002Z,4.21
2024-03-13T02:39:12.327Z,4.22
2024-03-13T02:41:57.311Z,4.25
2024-03-13T02:44:42.160Z,4.40
2024-03-13T02:47:27.149Z,4.34
2024-03-13T02:50:12.685Z,4.27
2024-03-13T02:52:57.507Z,4.32
2024-03-13T02:55:42.549Z,4.29
2024-03-13T02:58:27.613Z,4.32
2024-03-13T03:01:13.702Z,4.27
2024-03-13T03:03:58.993Z,4.17
2024-03-13T03:06:43.852Z,4.21
2024-03-13T03:09:28.803Z,4.30
2024-03-13T03:12:13.661Z,4.40
2024-03-13T03:14:58.619Z,4.47
2024-03-13T03:17:43.558Z,4.32
2024-03-13T03:20:28.550Z,4.42
2024-03-13T03:23:13.324Z,4.45
2024-03-13T03:25:58.314Z,4.33
2024-03-13T03:28:43.218Z,4.36
2024-03-13T03:31:28.218Z,4.37
2024-03-13T03:34:13.610Z,4.34
2024-03-13T03:36:58.621Z,4.43
2024-03-13T03:39:43.579Z,4.36
2024-03-13T03:42:28.787Z,4.36
2024-03-13T03:45:13.767Z,4.40
2024-03-13T03:48:04.795Z,4.30
2024-03-13T03:50:55.623Z,4.30
2024-03-13T03:53:40.561Z,4.25
2024-03-13T03:56:25.694Z,4.16
2024-03-13T03:59:10.639Z,4.19
2024-03-13T04:01:55.704Z,4.13
2024-03-13T04:04:41.088Z,4.13
2024-03-13T04:07:25.996Z,4.15
2024-03-13T04:10:11.002Z,4.25
2024-03-13T04:12:55.978Z,4.13
2024-03-13T04:15:41.101Z,4.21
2024-03-13T04:18:25.920Z,4.30
2024-03-13T04:21:11.211Z,4.47
2024-03-13T04:23:56.276Z,4.41
2024-03-13T04:26:41.443Z,4.57
2024-03-13T04:29:32.113Z,4.48
2024-03-13T04:32:23.955Z,4.54
2024-03-13T04:35:09.384Z,4.60
2024-03-13T04:37:54.299Z,4.76
2024-03-13T04:40:39.704Z,4.72
2024-03-13T04:43:24.858Z,4.80
2024-03-13T04:46:17.202Z,4.83
2024-03-13T04:49:02.340Z,4.79
2024-03-13T04:51:47.484Z,4.76
2024-03-13T04:54:32.461Z,4.78
2024-03-13T04:57:17.339Z,4.84
2024-03-13T05:00:02.450Z,4.92
2024-03-13T05:02:47.554Z,4.93
2024-03-13T05:05:32.281Z,4.93
2024-03-13T05:08:17.269Z,4.93
2024-03-13T05:11:02.165Z,4.85
2024-03-13T05:13:47.200Z,5.06
2024-03-13T05:16:32.674Z,5.24
2024-03-13T05:19:17.970Z,5.12
2024-03-13T05:22:02.978Z,5.03
2024-03-13T05:24:47.901Z,5.10
2024-03-13T05:27:32.776Z,5.09
2024-03-13T05:30:18.047Z,4.98
2024-03-13T05:33:03.299Z,4.99
2024-03-13T05:35:48.132Z,5.03
2024-03-13T05:38:33.134Z,5.08
2024-03-13T05:41:17.972Z,5.09
2024-03-13T05:44:02.808Z,5.16
2024-03-13T05:46:47.898Z,5.20
2024-03-13T05:49:32.827Z,5.31
2024-03-13T05:52:17.708Z,5.40
2024-03-13T05:55:02.699Z,5.37
2024-03-13T05:57:47.974Z,5.40
2024-03-13T06:00:33.143Z,5.48
2024-03-13T06:03:18.242Z,5.59
2024-03-13T06:06:03.406Z,5.57
2024-03-13T06:08:48.588Z,5.49
2024-03-13T06:11:33.617Z,5.57
2024-03-13T06:14:19.010Z,5.54
2024-03-13T06:17:03.999Z,5.60
2024-03-13T06:19:49.024Z,5.64
2024-03-13T06:22:33.997Z,5.64
2024-03-13T06:25:19.372Z,5.62
2024-03-13T06:28:04.473Z,5.57
2024-03-13T06:30:49.492Z,5.50
2024-03-13T06:33:34.569Z,5.55
2024-03-13T06:36:19.794Z,5.63
2024-03-13T06:39:04.723Z,5.70
2024-03-13T06:41:49.553Z,5.63
2024-03-13T06:44:34.501Z,5.64
2024-03-13T06:47:19.381Z,5.70
2024-03-13T06:50:04.867Z,5.73
2024-03-13T06:52:49.680Z,5.83
2024-03-13T06:55:34.657Z,5.92
2024-03-13T06:58:19.932Z,5.96
2024-03-13T07:01:14.515Z,5.93
2024-03-13T07:04:00.011Z,6.04
2024-03-13T07:06:45.763Z,6.13
2024-03-13T07:09:30.912Z,6.22
2024-03-13T07:12:16.703Z,6.32
2024-03-13T07:15:01.865Z,6.28
2024-03-13T07:17:46.851Z,6.42
2024-03-13T07:20:32.242Z,6.40
2024-03-13T07:23:17.584Z,6.35
2024-03-13T07:26:02.536Z,6.40
2024-03-13T07:28:47.394Z,6.57
2024-03-13T07:31:32.397Z,6.54
2024-03-13T07:34:17.357Z,6.60
2024-03-13T07:37:02.312Z,6.70
2024-03-13T07:39:47.301Z,6.66
2024-03-13T07:42:33.105Z,6.68
2024-03-13T07:45:18.450Z,6.69
2024-03-13T07:48:03.427Z,6.74
2024-03-13T07:50:48.637Z,6.69
2024-03-13T07:53:34.309Z,6.74
2024-03-13T07:56:19.439Z,6.73
2024-03-13T07:59:05.168Z,6.83
2024-03-13T08:01:50.345Z,6.80
2024-03-13T08:04:35.817Z,6.81
2024-03-13T09:08:30.787Z,7.63
2024-03-13T09:11:24.606Z,7.79
2024-03-13T09:14:09.401Z,7.79
2024-03-13T09:16:54.351Z,7.93
2024-03-13T09:19:39.313Z,7.97
2024-03-13T09:22:24.178Z,8.07
2024-03-13T09:25:09.120Z,8.00
2024-03-13T09:27:54.087Z,8.01
2024-03-13T09:30:39.031Z,8.12
2024-03-13T09:33:24.022Z,8.19
2024-03-13T09:36:15.565Z,8.24
2024-03-13T09:39:00.963Z,8.31
2024-03-13T09:41:48.210Z,8.25
2024-03-13T09:44:33.649Z,8.33
2024-03-13T09:47:20.198Z,8.50
2024-03-13T09:50:06.946Z,8.48
2024-03-13T09:52:56.532Z,8.54
2024-03-13T09:55:42.093Z,8.59
2024-03-13T09:58:27.344Z,8.62
2024-03-13T10:01:21.486Z,8.56
2024-03-13T10:04:10.152Z,8.59
2024-03-13T10:06:59.886Z,8.58
2024-03-13T10:09:47.350Z,8.62
2024-03-13T10:12:33.399Z,8.63
2024-03-13T10:15:20.168Z,8.73
2024-03-13T10:18:16.337Z,8.72
2024-03-13T10:21:24.427Z,8.78
2024-03-13T10:24:11.100Z,8.80
2024-03-13T10:26:57.747Z,8.80
2024-03-13T10:29:44.074Z,8.87
2024-03-13T10:32:29.443Z,8.98
2024-03-13T10:35:14.285Z,9.04
2024-03-13T10:37:59.221Z,9.06
2024-03-13T10:40:44.188Z,9.05
2024-03-13T10:43:29.556Z,9.16
2024-03-13T10:46:14.492Z,9.17
2024-03-13T10:49:00.931Z,9.23
2024-03-13T10:51:46.425Z,9.30
2024-03-13T10:54:31.169Z,9.35
2024-03-13T10:57:19.468Z,9.39
2024-03-13T11:00:12.177Z,9.41
2024-03-13T11:02:57.404Z,9.51
2024-03-13T11:05:42.760Z,9.61
2024-03-13T11:08:28.181Z,9.69
2024-03-13T11:11:20.483Z,9.75
2024-03-13T11:14:11.072Z,9.91
2024-03-13T11:16:58.363Z,9.92
2024-03-13T11:19:43.748Z,9.96
2024-03-13T11:22:32.539Z,10.04
2024-03-13T11:25:18.837Z,10.10
2024-03-13T11:28:08.965Z,9.99
2024-03-13T11:30:54.634Z,9.98
2024-03-13T11:33:40.295Z,10.03
2024-03-13T11:36:26.773Z,10.16
2024-03-13T11:39:12.161Z,10.15
2024-03-13T11:42:07.140Z,10.27
2024-03-13T11:45:13.074Z,10.37
2024-03-13T11:48:00.940Z,10.36
2024-03-13T11:51:01.610Z,10.37
2024-03-13T11:53:47.070Z,10.54
2024-03-13T11:56:32.894Z,10.55
2024-03-13T11:59:18.298Z,10.49
2024-03-13T12:02:03.459Z,10.58
2024-03-13T12:04:48.333Z,10.51
2024-03-13T12:07:40.135Z,10.56
2024-03-13T12:10:26.182Z,10.63
2024-03-13T12:13:15.536Z,10.64
2024-03-13T12:16:00.603Z,10.67
2024-03-13T12:18:45.824Z,10.61
2024-03-13T12:21:30.965Z,10.79
2024-03-13T12:24:15.975Z,10.83
2024-03-13T12:27:00.843Z,10.75
2024-03-13T12:29:45.821Z,10.88
2024-03-13T12:32:30.866Z,10.90
2024-03-13T12:35:15.710Z,11.07
2024-03-13T12:38:00.638Z,11.16
2024-03-13T12:40:46.601Z,11.14
2024-03-13T12:43:31.562Z,11.28
2024-03-13T12:46:17.255Z,11.10
2024-03-13T12:49:02.498Z,11.13
2024-03-13T12:51:52.673Z,11.15
2024-03-13T12:54:37.917Z,11.05
2024-03-13T12:57:22.812Z,10.99
2024-03-13T13:00:10.073Z,10.94
2024-03-13T13:02:55.625Z,11.06
2024-03-13T13:05:42.091Z,11.06
2024-03-13T13:08:29.610Z,10.97
2024-03-13T13:11:14.537Z,10.98
2024-03-13T13:13:59.509Z,11.02
2024-03-13T13:16:44.537Z,11.09
2024-03-13T13:19:29.881Z,10.93
2024-03-13T13:22:14.777Z,10.95
2024-03-13T13:24:59.681Z,10.87
2024-03-13T13:27:45.001Z,10.96
2024-03-13T13:30:30.219Z,10.91
2024-03-13T13:33:15.790Z,10.91
2024-03-13T13:36:01.568Z,10.98
2024-03-13T13:38:46.726Z,10.91
2024-03-13T13:41:31.745Z,10.96
2024-03-13T13:44:16.571Z,10.93
2024-03-13T13:47:01.433Z,11.03
2024-03-13T13:49:46.252Z,10.95
2024-03-13T13:52:31.243Z,10.96
2024-03-13T13:55:17.593Z,10.93
2024-03-13T13:58:03.693Z,10.95
2024-03-13T14:00:48.540Z,10.96
2024-03-13T14:03:33.368Z,11.00
2024-03-13T14:06:18.448Z,11.07
2024-03-13T14:09:03.915Z,11.05
2024-03-13T14:11:48.942Z,10.96
2024-03-13T14:14:34.302Z,10.96
2024-03-13T14:17:19.101Z,11.03
2024-03-13T14:20:04.947Z,10.97
2024-03-13T14:22:50.027Z,10.98
2024-03-13T14:25:35.316Z,10.93
2024-03-13T14:28:20.333Z,10.94
2024-03-13T14:31:05.253Z,10.91
2024-03-13T14:33:50.303Z,10.92
2024-03-13T14:36:35.504Z,11.02
2024-03-13T14:39:20.921Z,10.97
2024-03-13T14:42:08.295Z,10.93
2024-03-13T14:45:01.257Z,10.94
2024-03-13T14:47:47.567Z,10.95
2024-03-13T14:50:33.025Z,10.85
2024-03-13T14:53:17.964Z,10.86
2024-03-13T14:56:03.068Z,10.94
2024-03-13T14:58:48.044Z,10.94
2024-03-13T15:01:32.949Z,10.88
2024-03-13T15:04:17.904Z,11.00
2024-03-13T15:07:02.799Z,10.96
2024-03-13T15:09:47.784Z,10.82
2024-03-13T15:12:32.721Z,10.91
2024-03-13T15:15:18.741Z,10.86
2024-03-13T15:18:04.076Z,10.86
2024-03-13T15:20:49.156Z,10.79
2024-03-13T15:23:34.150Z,10.76
2024-03-13T15:26:19.203Z,10.77
2024-03-13T15:29:04.505Z,10.77
2024-03-13T15:31:49.367Z,10.74
2024-03-13T15:34:34.265Z,10.74
2024-03-13T15:37:18.993Z,10.75
2024-03-13T15:40:04.314Z,10.76
2024-03-13T15:42:49.420Z,10.76
2024-03-13T15:45:35.143Z,10.78
2024-03-13T15:48:20.422Z,10.87
2024-03-13T15:51:05.530Z,10.79
2024-03-13T15:53:50.751Z,10.76
2024-03-13T15:56:35.929Z,10.76
2024-03-13T15:59:20.817Z,10.82
2024-03-13T16:02:06.033Z,10.84
2024-03-13T16:04:51.161Z,10.77
2024-03-13T16:07:36.374Z,10.84
2024-03-13T16:10:21.312Z,10.75
2024-03-13T16:13:06.429Z,10.77
2024-03-13T16:15:51.251Z,10.75
2024-03-13T16:18:36.334Z,10.71
2024-03-13T16:21:21.715Z,10.62
2024-03-13T16:24:07.019Z,10.61
2024-03-13T16:26:52.400Z,10.58
2024-03-13T16:32:22.183Z,10.54
2024-03-13T16:35:07.253Z,10.54
2024-03-13T16:37:52.512Z,10.56
2024-03-13T16:40:37.508Z,10.51
2024-03-13T16:43:22.335Z,10.53
2024-03-13T16:46:07.491Z,10.49
2024-03-13T16:48:52.713Z,10.53
2024-03-13T16:51:38.589Z,10.51
2024-03-13T16:54:23.461Z,10.53
2024-03-13T16:57:09.103Z,10.50
2024-03-13T16:59:54.237Z,10.44
2024-03-13T17:02:39.096Z,10.53
2024-03-13T17:05:24.180Z,10.50
2024-03-13T17:08:09.384Z,10.48
2024-03-13T17:10:54.252Z,10.45
2024-03-13T17:13:38.970Z,10.42
2024-03-13T17:16:23.856Z,10.42
2024-03-13T17:19:08.650Z,10.41
2024-03-13T17:21:53.599Z,10.41
2024-03-13T17:24:38.647Z,10.40
2024-03-13T17:27:23.589Z,10.36
2024-03-13T17:30:08.786Z,10.37
2024-03-13T17:32:54.122Z,10.38
2024-03-13T17:35:39.241Z,10.35
2024-03-13T17:38:24.069Z,10.36
2024-03-13T17:41:09.413Z,10.36
2024-03-13T17:43:54.461Z,10.38
2024-03-13T17:46:39.447Z,10.39
2024-03-13T17:49:24.431Z,10.40
2024-03-13T17:52:09.264Z,10.35
2024-03-13T17:54:54.792Z,10.33
2024-03-13T17:57:39.615Z,10.34
2024-03-13T18:00:24.580Z,10.34
2024-03-13T18:03:10.054Z,10.47
2024-03-13T18:05:55.501Z,10.36
2024-03-13T18:08:40.990Z,10.36
2024-03-13T18:11:25.851Z,10.35
2024-03-13T18:14:11.515Z,10.34
2024-03-13T18:16:56.741Z,10.38
2024-03-13T18:19:41.669Z,10.35
2024-03-13T18:22:26.633Z,10.30
2024-03-13T18:25:11.603Z,10.36
2024-03-13T18:27:56.530Z,10.42
2024-03-13T18:30:41.310Z,10.39
2024-03-13T18:33:26.370Z,10.45
2024-03-13T18:36:14.788Z,10.43
2024-03-13T18:38:59.761Z,10.52
2024-03-13T18:41:45.128Z,10.52
2024-03-13T18:44:32.261Z,10.59
2024-03-13T18:47:17.577Z,10.62
2024-03-13T18:50:03.480Z,10.63
2024-03-13T18:52:49.102Z,10.70
2024-03-13T18:55:34.442Z,10.69
2024-03-13T18:58:19.322Z,10.55
2024-03-13T19:01:04.433Z,10.56
2024-03-13T19:03:49.498Z,10.50
2024-03-13T19:06:34.708Z,10.62
2024-03-13T19:09:19.858Z,10.59
2024-03-13T19:12:04.873Z,10.48
2024-03-13T19:14:50.259Z,10.51
2024-03-13T19:17:35.274Z,10.44
2024-03-13T19:20:20.363Z,10.44
2024-03-13T19:23:06.150Z,10.41
2024-03-13T19:25:51.411Z,10.45
2024-03-13T19:28:36.585Z,10.48
2024-03-13T19:31:27.160Z,10.48
2024-03-13T19:34:19.845Z,10.43
2024-03-13T19:37:04.912Z,10.43
2024-03-13T19:39:49.798Z,10.48
2024-03-13T19:42:34.629Z,10.48
2024-03-13T19:45:19.631Z,10.43
2024-03-13T19:48:05.584Z,10.41
2024-03-13T19:50:50.817Z,10.49
2024-03-13T19:53:35.768Z,10.42
2024-03-13T19:56:20.759Z,10.41
2024-03-13T19:59:05.791Z,10.42
2024-03-13T20:01:50.662Z,10.45
2024-03-13T20:04:35.563Z,10.37
2024-03-13T20:07:20.591Z,10.38
2024-03-13T20:10:05.802Z,10.40
2024-03-13T20:12:51.276Z,10.55
2024-03-13T20:15:36.500Z,10.60
2024-03-13T20:18:22.031Z,10.58
2024-03-13T20:21:07.532Z,10.57
2024-03-13T20:23:52.456Z,10.54
2024-03-13T20:26:40.635Z,10.57
2024-03-13T20:29:26.001Z,10.45
2024-03-13T20:32:10.801Z,10.40
2024-03-13T20:34:55.774Z,10.52
2024-03-13T20:37:40.925Z,10.50
2024-03-13T20:40:26.039Z,10.56
2024-03-13T20:43:10.817Z,10.55
2024-03-13T20:45:55.655Z,10.64
2024-03-13T20:48:40.380Z,10.62
2024-03-13T20:51:25.917Z,10.57
2024-03-13T20:54:11.235Z,10.59
2024-03-13T20:56:56.351Z,10.58
2024-03-13T20:59:41.247Z,10.57
2024-03-13T21:02:26.267Z,10.46
2024-03-13T21:05:11.152Z,10.54
2024-03-13T21:07:55.963Z,10.61
2024-03-13T21:10:41.281Z,10.52
2024-03-13T21:13:26.237Z,10.55
2024-03-13T21:16:11.201Z,10.62
2024-03-13T21:18:56.090Z,10.57
2024-03-13T21:21:41.496Z,10.56
2024-03-13T21:24:26.456Z,10.57
2024-03-13T21:27:11.406Z,10.57
2024-03-13T21:29:56.331Z,10.58
2024-03-13T21:32:42.390Z,10.55
2024-03-13T21:35:27.520Z,10.57
2024-03-13T21:38:13.018Z,10.67
2024-03-13T21:41:00.154Z,10.69
2024-03-13T21:43:46.084Z,10.64
2024-03-13T21:46:31.420Z,10.64
2024-03-13T21:49:16.451Z,10.61
2024-03-13T21:52:01.335Z,10.67
2024-03-13T21:54:46.240Z,10.66
2024-03-13T21:57:31.063Z,10.61
2024-03-13T22:00:16.771Z,10.68
2024-03-13T22:03:02.173Z,10.76
2024-03-13T22:05:47.180Z,10.70
2024-03-13T22:08:32.422Z,10.74
2024-03-13T22:11:17.887Z,10.68
2024-03-13T22:14:02.944Z,10.66
2024-03-13T22:16:47.945Z,10.63
2024-03-13T22:19:32.752Z,10.63
2024-03-13T22:22:17.864Z,10.65
2024-03-13T22:25:03.062Z,10.60
2024-03-13T22:27:48.377Z,10.59
2024-03-13T22:30:33.786Z,10.65
2024-03-13T22:33:18.853Z,10.61
2024-03-13T22:36:04.836Z,10.65
2024-03-13T22:38:50.230Z,10.69
2024-03-13T22:41:35.142Z,10.61
2024-03-13T22:44:20.069Z,10.63
2024-03-13T22:47:05.951Z,10.59
2024-03-13T22:49:50.866Z,10.57
2024-03-13T22:52:35.737Z,10.60
2024-03-13T22:55:20.587Z,10.70
2024-03-13T22:58:05.631Z,10.67
2024-03-13T23:00:50.507Z,10.69
2024-03-13T23:03:35.665Z,10.63
2024-03-13T23:06:21.122Z,10.71
2024-03-13T23:09:06.361Z,10.76
2024-03-13T23:11:51.753Z,10.69
2024-03-13T23:14:36.732Z,10.67
2024-03-13T23:17:21.696Z,10.70
2024-03-13T23:20:07.707Z,10.69
2024-03-13T23:22:52.779Z,10.66
2024-03-13T23:25:37.807Z,10.69
2024-03-13T23:28:22.661Z,10.71
2024-03-13T23:31:10.927Z,10.70
2024-03-13T23:33:56.288Z,10.74
2024-03-13T23:36:41.457Z,10.77
2024-03-13T23:39:26.480Z,10.78
2024-03-13T23:42:11.430Z,10.79
2024-03-13T23:44:56.278Z,10.81
2024-03-13T23:47:42.429Z,10.82
2024-03-13T23:50:27.291Z,10.79
2024-03-13T23:53:12.389Z,10.86
2024-03-13T23:55:57.510Z,10.92
2024-03-13T23:58:42.688Z,10.81
